createdAt,value
2022-12-31T00:00:02.331Z,995.5173150590891
2022-12-31T00:15:01.998Z,995.5975508573902
2022-12-31T00:30:04.694Z,995.4916287578403
2022-12-31T00:45:01.751Z,995.4764786062526
2022-12-31T01:00:02.374Z,995.4074732868322
2022-12-31T01:15:02.041Z,995.3405985063415
2022-12-31T01:30:01.720Z,995.3749450166698
2022-12-31T01:45:02.364Z,995.4043970148327
2022-12-31T02:00:01.990Z,995.4323234847284
2022-12-31T02:15:01.671Z,995.2512709289466
2022-12-31T02:30:02.324Z,995.1764849039988
2022-12-31T02:45:01.956Z,994.8867994179997
2022-12-31T03:00:01.599Z,994.8551214234299
2022-12-31T03:15:02.285Z,995.2956949286279
2022-12-31T03:30:01.935Z,995.5027397575612
2022-12-31T03:45:01.581Z,995.9817930448969
2022-12-31T04:00:02.207Z,995.1800056687593
2022-12-31T04:15:01.860Z,995.1774728101543
2022-12-31T04:30:01.535Z,995.4696808596761
2022-12-31T04:45:02.214Z,995.3355585448284
2022-12-31T05:00:01.851Z,995.6143894138712
2022-12-31T05:15:01.490Z,995.7098847463385
2022-12-31T05:30:02.508Z,995.5605340374703
2022-12-31T05:45:02.121Z,995.6095949149384
2022-12-31T06:00:01.819Z,995.7088786390436
2022-12-31T06:15:02.456Z,995.7999911244166
2022-12-31T06:30:02.132Z,995.8548016884539
2022-12-31T06:45:01.843Z,995.9410869362026
2022-12-31T07:00:02.674Z,996.1293430863104
2022-12-31T07:15:02.321Z,995.9620544819683
2022-12-31T07:30:01.966Z,996.0800591242369
2022-12-31T07:45:01.606Z,996.1068697511708
2022-12-31T08:00:02.263Z,996.2171796738851
2022-12-31T08:15:01.932Z,996.2437151115627
2022-12-31T08:30:01.625Z,996.0523208832384
2022-12-31T08:45:02.257Z,996.136004073539
2022-12-31T09:00:01.915Z,996.3273373031557
2022-12-31T09:15:01.558Z,996.1656398631566
2022-12-31T09:30:02.233Z,996.3582997904989
2022-12-31T09:45:01.931Z,996.2127373339061
2022-12-31T10:00:01.554Z,997.3061892933105
2022-12-31T10:15:02.194Z,997.5904473064769
2022-12-31T10:30:01.867Z,998.1287541088091
2022-12-31T10:45:01.529Z,998.1476487430488
2022-12-31T11:00:02.239Z,998.0115993158622
2022-12-31T11:15:01.934Z,998.0153916162309
2022-12-31T11:30:01.623Z,997.8189339463961
2022-12-31T11:45:02.244Z,997.8722365421528
2022-12-31T12:00:01.935Z,997.6308359964022
2022-12-31T12:15:01.653Z,997.6228642012918
2022-12-31T12:30:01.378Z,997.4715442766236
2022-12-31T12:45:02.046Z,997.6575523714581
2022-12-31T13:00:01.705Z,997.5277092040872
2022-12-31T13:15:01.383Z,997.3633828816226
2022-12-31T13:30:02.360Z,997.7234423961567
2022-12-31T13:45:02.016Z,997.8687650464693
2022-12-31T14:00:01.650Z,997.6454829215618
2022-12-31T14:15:02.345Z,997.9172181460177
2022-12-31T14:30:02.036Z,998.2137636604658
2022-12-31T14:45:01.720Z,998.3636906645818
2022-12-31T15:00:02.408Z,998.6639504770524
2022-12-31T15:15:02.167Z,998.6985004980079
2022-12-31T15:30:01.919Z,998.5616620234755
2022-12-31T15:45:01.626Z,998.8960466704286
2022-12-31T16:00:02.306Z,998.8461439595258
2022-12-31T16:15:02.025Z,999.0448029184688
2022-12-31T16:30:01.741Z,998.9797472875254
2022-12-31T16:45:02.460Z,999.0976311624582
2022-12-31T17:00:02.110Z,998.9906876071777
2022-12-31T17:15:01.760Z,998.782846766761
2022-12-31T17:30:01.458Z,998.5937847801206
2022-12-31T17:45:02.195Z,998.4252502281065
2022-12-31T18:00:01.865Z,998.3282343541498
2022-12-31T18:15:01.524Z,998.3472960161693
2022-12-31T18:30:05.604Z,998.3529414095595
2022-12-31T18:45:02.105Z,998.6300115890258
2022-12-31T19:00:01.753Z,998.7206288570763
2022-12-31T19:15:01.436Z,998.5236505911728
2022-12-31T19:30:02.106Z,998.6718006992835
2022-12-31T19:45:01.755Z,998.674269162965
2022-12-31T20:00:01.406Z,998.68261280661
2022-12-31T20:15:02.103Z,999.164132456608
2022-12-31T20:30:01.811Z,999.2342169545092
2022-12-31T20:45:01.469Z,999.1739296944596
2022-12-31T21:00:02.137Z,999.3756037215554
2022-12-31T21:15:01.790Z,999.3493950668353
2022-12-31T21:30:18.440Z,999.5359216678138
2022-12-31T21:45:01.894Z,999.4714050621426
2022-12-31T22:00:39.747Z,999.5963027943509
2022-12-31T22:15:14.641Z,999.6184326204606
2022-12-31T22:30:01.764Z,999.693709337998
2022-12-31T22:45:02.432Z,999.8814908379775
2022-12-31T23:00:02.231Z,1000.0971820670202
2022-12-31T23:15:01.876Z,1000.0725239098683
2022-12-31T23:30:01.555Z,1000.111229743257
2022-12-31T23:45:02.209Z,1000.02887478784
